createdAt,value
2018-08-22T00:00:44.722Z,93.10
2018-08-22T00:03:14.549Z,93.20
2018-08-22T00:05:44.959Z,93.20
2018-08-22T00:08:14.983Z,93.20
2018-08-22T00:10:44.947Z,93.20
2018-08-22T00:13:14.854Z,93.20
2018-08-22T00:15:45.023Z,93.30
2018-08-22T00:18:15.292Z,93.30
2018-08-22T00:20:45.535Z,93.30
2018-08-22T00:23:15.577Z,93.30
2018-08-22T00:25:46.327Z,93.30
2018-08-22T00:28:16.241Z,93.30
2018-08-22T00:30:45.731Z,93.30
2018-08-22T00:33:15.671Z,93.30
2018-08-22T00:35:46.520Z,93.50
2018-08-22T00:38:17.201Z,93.50
2018-08-22T00:40:47.967Z,93.60
2018-08-22T00:43:18.399Z,93.90
2018-08-22T00:45:48.031Z,93.90
2018-08-22T00:48:17.595Z,93.90
2018-08-22T00:50:47.524Z,93.90
2018-08-22T00:53:17.452Z,93.90
2018-08-22T00:55:48.066Z,93.90
2018-08-22T00:58:17.924Z,93.90
2018-08-22T01:00:48.006Z,93.90
2018-08-22T01:03:17.739Z,93.90
2018-08-22T01:05:47.652Z,94.00
2018-08-22T01:08:18.055Z,94.00
2018-08-22T01:10:48.099Z,94.00
2018-08-22T01:13:17.998Z,94.00
2018-08-22T01:15:47.907Z,94.00
2018-08-22T01:18:18.143Z,94.00
2018-08-22T01:20:48.399Z,94.00
2018-08-22T01:23:17.969Z,94.10
2018-08-22T01:25:48.073Z,94.10
2018-08-22T01:28:18.500Z,94.10
2018-08-22T01:30:49.131Z,94.10
2018-08-22T01:33:19.509Z,94.20
2018-08-22T01:35:49.372Z,94.30
2018-08-22T01:38:19.064Z,94.40
2018-08-22T01:40:49.196Z,94.40
2018-08-22T01:43:18.802Z,94.50
2018-08-22T01:45:48.727Z,94.50
2018-08-22T01:48:19.162Z,94.60
2018-08-22T01:50:49.207Z,94.70
2018-08-22T01:53:19.491Z,94.80
2018-08-22T01:55:49.071Z,94.80
2018-08-22T01:58:18.909Z,94.80
2018-08-22T02:00:48.831Z,95.20
2018-08-22T02:03:18.724Z,95.10
2018-08-22T02:05:48.671Z,95.00
2018-08-22T02:08:19.025Z,95.00
2018-08-22T02:10:48.827Z,95.00
2018-08-22T02:13:18.759Z,95.00
2018-08-22T02:15:48.747Z,95.00
2018-08-22T02:18:19.210Z,95.00
2018-08-22T02:20:49.075Z,95.00
2018-08-22T02:23:19.611Z,95.00
2018-08-22T02:25:50.131Z,95.00
2018-08-22T02:28:19.747Z,95.10
2018-08-22T02:30:49.647Z,95.10
2018-08-22T02:33:19.265Z,95.30
2018-08-22T02:35:49.376Z,95.40
2018-08-22T02:38:24.669Z,95.40
2018-08-22T02:40:57.086Z,95.40
2018-08-22T02:43:27.546Z,95.50
2018-08-22T02:45:57.850Z,95.50
2018-08-22T02:48:27.988Z,95.60
2018-08-22T02:50:58.115Z,95.50
2018-08-22T02:53:28.432Z,95.60
2018-08-22T02:55:58.055Z,95.50
2018-08-22T02:58:28.100Z,95.40
2018-08-22T03:00:58.516Z,95.40
2018-08-22T03:03:29.014Z,95.40
2018-08-22T03:05:58.927Z,95.40
2018-08-22T03:08:29.338Z,95.50
2018-08-22T03:10:59.416Z,95.50
2018-08-22T03:13:29.742Z,95.50
2018-08-22T03:16:00.500Z,95.70
2018-08-22T03:18:30.371Z,95.60
2018-08-22T03:21:01.052Z,96.00
2018-08-22T03:23:31.663Z,95.90
2018-08-22T03:26:01.662Z,95.80
2018-08-22T03:28:31.585Z,95.70
2018-08-22T03:31:02.453Z,95.70
2018-08-22T03:33:32.283Z,95.60
2018-08-22T03:36:02.851Z,95.60
2018-08-22T03:38:32.738Z,95.60
2018-08-22T03:41:02.650Z,95.60
2018-08-22T03:43:32.527Z,95.70
2018-08-22T03:46:03.087Z,95.80
2018-08-22T03:48:32.747Z,95.80
2018-08-22T03:51:02.605Z,95.80
2018-08-22T03:53:33.103Z,95.80
2018-08-22T03:56:02.762Z,95.90
2018-08-22T03:58:33.300Z,95.90
2018-08-22T04:01:03.380Z,96.00
2018-08-22T04:03:33.167Z,96.00
2018-08-22T04:06:03.519Z,96.00
2018-08-22T04:08:34.551Z,96.10
2018-08-22T04:11:05.387Z,96.20
2018-08-22T04:13:34.967Z,96.70
2018-08-22T04:16:05.831Z,96.60
2018-08-22T04:18:35.655Z,96.40
2018-08-22T04:21:05.616Z,96.40
2018-08-22T04:23:35.523Z,96.40
2018-08-22T04:26:06.374Z,96.40
2018-08-22T04:28:36.571Z,96.30
2018-08-22T04:31:07.068Z,96.30
2018-08-22T04:33:37.691Z,96.40
2018-08-22T04:36:07.499Z,96.70
2018-08-22T04:38:38.242Z,96.60
2018-08-22T04:41:08.903Z,96.60
2018-08-22T04:43:38.844Z,96.70
2018-08-22T04:46:08.728Z,96.60
2018-08-22T04:48:38.310Z,96.60
2018-08-22T04:51:08.251Z,96.40
2018-08-22T04:53:37.819Z,96.30
2018-08-22T04:56:07.793Z,96.30
2018-08-22T04:58:38.295Z,96.20
